sensor_id;sensor_type;location;lat;lon;timestamp;temperature;humidity
4826;DHT22;2427;50.934;6.776;2023-11-21T00:00:30;8.60;30.70
4826;DHT22;2427;50.934;6.776;2023-11-21T00:02:56;8.60;30.30
4826;DHT22;2427;50.934;6.776;2023-11-21T00:05:22;8.60;30.10
4826;DHT22;2427;50.934;6.776;2023-11-21T00:07:48;8.60;30.50
4826;DHT22;2427;50.934;6.776;2023-11-21T00:10:14;8.60;30.00
4826;DHT22;2427;50.934;6.776;2023-11-21T00:12:41;8.60;30.00
4826;DHT22;2427;50.934;6.776;2023-11-21T00:15:08;8.60;29.80
4826;DHT22;2427;50.934;6.776;2023-11-21T00:17:37;8.60;29.70
4826;DHT22;2427;50.934;6.776;2023-11-21T00:20:04;8.60;29.60
4826;DHT22;2427;50.934;6.776;2023-11-21T00:22:32;8.60;29.50
4826;DHT22;2427;50.934;6.776;2023-11-21T00:24:58;8.60;29.40
4826;DHT22;2427;50.934;6.776;2023-11-21T00:27:24;8.60;29.10
4826;DHT22;2427;50.934;6.776;2023-11-21T00:29:49;8.60;28.70
4826;DHT22;2427;50.934;6.776;2023-11-21T00:32:15;8.60;29.00
4826;DHT22;2427;50.934;6.776;2023-11-21T00:34:40;8.60;29.00
4826;DHT22;2427;50.934;6.776;2023-11-21T00:37:06;8.60;29.00
4826;DHT22;2427;50.934;6.776;2023-11-21T00:39:33;8.60;28.40
4826;DHT22;2427;50.934;6.776;2023-11-21T00:42:00;8.60;28.20
4826;DHT22;2427;50.934;6.776;2023-11-21T00:44:26;8.60;27.70
4826;DHT22;2427;50.934;6.776;2023-11-21T00:46:51;8.60;27.20
4826;DHT22;2427;50.934;6.776;2023-11-21T00:49:17;8.60;26.70
4826;DHT22;2427;50.934;6.776;2023-11-21T00:51:42;8.60;26.10
4826;DHT22;2427;50.934;6.776;2023-11-21T00:54:08;8.60;26.10
4826;DHT22;2427;50.934;6.776;2023-11-21T00:56:33;8.60;25.80
4826;DHT22;2427;50.934;6.776;2023-11-21T00:58:59;8.60;25.40
4826;DHT22;2427;50.934;6.776;2023-11-21T01:01:25;8.60;24.90
4826;DHT22;2427;50.934;6.776;2023-11-21T01:03:50;8.60;24.30
4826;DHT22;2427;50.934;6.776;2023-11-21T01:06:16;8.50;23.70
4826;DHT22;2427;50.934;6.776;2023-11-21T01:08:43;8.50;22.50
4826;DHT22;2427;50.934;6.776;2023-11-21T01:11:09;8.50;21.60
4826;DHT22;2427;50.934;6.776;2023-11-21T01:13:40;8.50;20.60
4826;DHT22;2427;50.934;6.776;2023-11-21T01:16:06;8.50;20.10
4826;DHT22;2427;50.934;6.776;2023-11-21T01:18:32;8.40;19.00
4826;DHT22;2427;50.934;6.776;2023-11-21T01:20:58;8.40;18.00
4826;DHT22;2427;50.934;6.776;2023-11-21T01:23:24;8.40;17.40
4826;DHT22;2427;50.934;6.776;2023-11-21T01:25:50;8.30;15.50
4826;DHT22;2427;50.934;6.776;2023-11-21T01:28:17;8.30;15.70
4826;DHT22;2427;50.934;6.776;2023-11-21T01:30:42;8.30;14.20
4826;DHT22;2427;50.934;6.776;2023-11-21T01:33:08;8.30;13.70
4826;DHT22;2427;50.934;6.776;2023-11-21T01:35:34;8.30;13.90
4826;DHT22;2427;50.934;6.776;2023-11-21T01:37:59;8.30;15.10
4826;DHT22;2427;50.934;6.776;2023-11-21T01:40:25;8.30;15.70
4826;DHT22;2427;50.934;6.776;2023-11-21T01:42:50;8.30;16.30
4826;DHT22;2427;50.934;6.776;2023-11-21T01:45:16;8.30;16.00
4826;DHT22;2427;50.934;6.776;2023-11-21T01:47:42;8.30;16.30
4826;DHT22;2427;50.934;6.776;2023-11-21T01:50:14;8.30;15.70
4826;DHT22;2427;50.934;6.776;2023-11-21T01:52:42;8.20;15.70
4826;DHT22;2427;50.934;6.776;2023-11-21T01:55:09;8.20;13.90
4826;DHT22;2427;50.934;6.776;2023-11-21T01:57:36;8.10;12.00
4826;DHT22;2427;50.934;6.776;2023-11-21T02:10:37;8.10;9.60
4826;DHT22;2427;50.934;6.776;2023-11-21T02:13:03;8.10;9.40
4826;DHT22;2427;50.934;6.776;2023-11-21T02:15:29;8.10;9.10
4826;DHT22;2427;50.934;6.776;2023-11-21T02:17:55;8.10;8.90
4826;DHT22;2427;50.934;6.776;2023-11-21T02:20:21;8.10;8.70
4826;DHT22;2427;50.934;6.776;2023-11-21T02:22:53;8.10;8.30
4826;DHT22;2427;50.934;6.776;2023-11-21T02:25:29;8.10;6.80
4826;DHT22;2427;50.934;6.776;2023-11-21T02:28:02;8.10;5.30
4826;DHT22;2427;50.934;6.776;2023-11-21T02:30:28;8.10;4.60
4826;DHT22;2427;50.934;6.776;2023-11-21T02:32:55;8.10;2.80
4826;DHT22;2427;50.934;6.776;2023-11-21T02:35:24;8.00;1.60
4826;DHT22;2427;50.934;6.776;2023-11-21T02:37:51;8.00;1.00
4826;DHT22;2427;50.934;6.776;2023-11-21T02:40:17;8.00;1.00
4826;DHT22;2427;50.934;6.776;2023-11-21T02:42:44;8.00;1.00
4826;DHT22;2427;50.934;6.776;2023-11-21T02:45:10;7.90;1.00
4826;DHT22;2427;50.934;6.776;2023-11-21T02:47:38;7.90;1.00
4826;DHT22;2427;50.934;6.776;2023-11-21T02:50:04;7.90;1.00
4826;DHT22;2427;50.934;6.776;2023-11-21T02:52:31;7.90;1.00
4826;DHT22;2427;50.934;6.776;2023-11-21T02:54:58;7.90;1.00
4826;DHT22;2427;50.934;6.776;2023-11-21T02:57:24;7.90;1.00
4826;DHT22;2427;50.934;6.776;2023-11-21T02:59:49;7.90;1.00
4826;DHT22;2427;50.934;6.776;2023-11-21T03:02:15;7.90;1.00
4826;DHT22;2427;50.934;6.776;2023-11-21T03:04:41;7.90;1.00
4826;DHT22;2427;50.934;6.776;2023-11-21T03:07:08;7.90;1.00
4826;DHT22;2427;50.934;6.776;2023-11-21T03:09:34;7.90;1.00
4826;DHT22;2427;50.934;6.776;2023-11-21T03:11:59;7.90;1.00
4826;DHT22;2427;50.934;6.776;2023-11-21T03:14:25;7.90;1.00
4826;DHT22;2427;50.934;6.776;2023-11-21T03:16:50;7.90;1.00
4826;DHT22;2427;50.934;6.776;2023-11-21T03:19:16;8.00;1.00
4826;DHT22;2427;50.934;6.776;2023-11-21T03:21:42;8.00;1.00
4826;DHT22;2427;50.934;6.776;2023-11-21T03:24:08;8.00;1.00
4826;DHT22;2427;50.934;6.776;2023-11-21T03:26:33;8.00;1.00
4826;DHT22;2427;50.934;6.776;2023-11-21T03:28:59;8.00;1.00
4826;DHT22;2427;50.934;6.776;2023-11-21T03:31:25;8.00;1.00
4826;DHT22;2427;50.934;6.776;2023-11-21T03:33:52;8.10;1.00
4826;DHT22;2427;50.934;6.776;2023-11-21T03:36:19;8.10;1.00
4826;DHT22;2427;50.934;6.776;2023-11-21T03:38:45;8.00;1.00
4826;DHT22;2427;50.934;6.776;2023-11-21T03:41:10;8.00;1.00
4826;DHT22;2427;50.934;6.776;2023-11-21T03:43:36;8.00;1.00
4826;DHT22;2427;50.934;6.776;2023-11-21T03:46:02;8.00;1.00
4826;DHT22;2427;50.934;6.776;2023-11-21T03:48:28;8.00;1.00
4826;DHT22;2427;50.934;6.776;2023-11-21T03:50:53;8.10;1.00
4826;DHT22;2427;50.934;6.776;2023-11-21T03:53:19;8.00;1.00
4826;DHT22;2427;50.934;6.776;2023-11-21T03:55:45;8.00;1.00
4826;DHT22;2427;50.934;6.776;2023-11-21T03:58:10;8.00;1.00
4826;DHT22;2427;50.934;6.776;2023-11-21T04:00:36;8.00;1.00
4826;DHT22;2427;50.934;6.776;2023-11-21T04:03:01;8.00;1.00
4826;DHT22;2427;50.934;6.776;2023-11-21T04:05:27;8.00;1.00
4826;DHT22;2427;50.934;6.776;2023-11-21T04:07:53;8.00;1.00
4826;DHT22;2427;50.934;6.776;2023-11-21T04:10:19;8.00;1.00
4826;DHT22;2427;50.934;6.776;2023-11-21T04:12:45;8.00;1.00
4826;DHT22;2427;50.934;6.776;2023-11-21T04:15:11;8.00;1.00
4826;DHT22;2427;50.934;6.776;2023-11-21T04:17:38;7.90;1.00
4826;DHT22;2427;50.934;6.776;2023-11-21T04:20:05;7.90;1.00
4826;DHT22;2427;50.934;6.776;2023-11-21T04:22:37;7.90;1.00
4826;DHT22;2427;50.934;6.776;2023-11-21T04:25:08;7.90;1.00
4826;DHT22;2427;50.934;6.776;2023-11-21T04:27:33;7.90;1.00
4826;DHT22;2427;50.934;6.776;2023-11-21T04:30:00;7.90;1.00
4826;DHT22;2427;50.934;6.776;2023-11-21T04:32:25;7.80;1.00
4826;DHT22;2427;50.934;6.776;2023-11-21T04:34:51;7.80;1.00
4826;DHT22;2427;50.934;6.776;2023-11-21T04:37:16;7.80;1.00
4826;DHT22;2427;50.934;6.776;2023-11-21T04:39:42;7.80;1.00
4826;DHT22;2427;50.934;6.776;2023-11-21T04:42:07;7.80;1.00
4826;DHT22;2427;50.934;6.776;2023-11-21T04:44:33;7.80;1.00
4826;DHT22;2427;50.934;6.776;2023-11-21T04:46:58;7.80;1.00
4826;DHT22;2427;50.934;6.776;2023-11-21T04:49:24;7.80;1.00
4826;DHT22;2427;50.934;6.776;2023-11-21T04:51:49;7.70;1.00
4826;DHT22;2427;50.934;6.776;2023-11-21T04:54:15;7.70;1.00
4826;DHT22;2427;50.934;6.776;2023-11-21T04:56:40;7.70;1.00
4826;DHT22;2427;50.934;6.776;2023-11-21T04:59:07;7.60;1.00
4826;DHT22;2427;50.934;6.776;2023-11-21T05:01:33;7.60;1.00
4826;DHT22;2427;50.934;6.776;2023-11-21T05:03:59;7.60;1.00
4826;DHT22;2427;50.934;6.776;2023-11-21T05:06:24;7.60;1.00
4826;DHT22;2427;50.934;6.776;2023-11-21T05:08:50;7.50;1.00
4826;DHT22;2427;50.934;6.776;2023-11-21T05:11:26;7.60;1.00
4826;DHT22;2427;50.934;6.776;2023-11-21T05:13:51;7.50;1.00
4826;DHT22;2427;50.934;6.776;2023-11-21T05:16:17;7.50;1.00
4826;DHT22;2427;50.934;6.776;2023-11-21T05:18:42;7.60;1.00
4826;DHT22;2427;50.934;6.776;2023-11-21T05:21:08;7.60;1.00
4826;DHT22;2427;50.934;6.776;2023-11-21T05:23:35;7.60;1.00
4826;DHT22;2427;50.934;6.776;2023-11-21T05:26:00;7.60;1.00
4826;DHT22;2427;50.934;6.776;2023-11-21T05:28:26;7.60;1.00
4826;DHT22;2427;50.934;6.776;2023-11-21T05:30:51;7.70;1.00
4826;DHT22;2427;50.934;6.776;2023-11-21T05:33:17;7.70;1.00
4826;DHT22;2427;50.934;6.776;2023-11-21T05:35:42;7.70;1.00
4826;DHT22;2427;50.934;6.776;2023-11-21T05:38:08;7.70;1.00
4826;DHT22;2427;50.934;6.776;2023-11-21T05:40:34;7.70;1.00
4826;DHT22;2427;50.934;6.776;2023-11-21T05:42:59;7.70;1.00
4826;DHT22;2427;50.934;6.776;2023-11-21T05:45:25;7.80;1.00
4826;DHT22;2427;50.934;6.776;2023-11-21T05:47:51;7.70;1.00
4826;DHT22;2427;50.934;6.776;2023-11-21T05:50:17;7.70;1.00
4826;DHT22;2427;50.934;6.776;2023-11-21T05:52:44;7.70;1.00
4826;DHT22;2427;50.934;6.776;2023-11-21T05:55:10;7.70;1.00
4826;DHT22;2427;50.934;6.776;2023-11-21T05:57:37;7.70;1.00
4826;DHT22;2427;50.934;6.776;2023-11-21T06:00:08;7.70;1.00
4826;DHT22;2427;50.934;6.776;2023-11-21T06:02:40;7.70;1.00
4826;DHT22;2427;50.934;6.776;2023-11-21T06:05:07;7.70;1.00
4826;DHT22;2427;50.934;6.776;2023-11-21T06:07:33;7.70;1.00
4826;DHT22;2427;50.934;6.776;2023-11-21T06:09:58;7.70;1.00
4826;DHT22;2427;50.934;6.776;2023-11-21T06:12:24;7.70;1.00
4826;DHT22;2427;50.934;6.776;2023-11-21T06:14:50;7.70;1.00
4826;DHT22;2427;50.934;6.776;2023-11-21T06:17:16;7.70;1.00
4826;DHT22;2427;50.934;6.776;2023-11-21T06:19:43;7.70;1.00
4826;DHT22;2427;50.934;6.776;2023-11-21T06:22:11;7.80;1.00
4826;DHT22;2427;50.934;6.776;2023-11-21T06:24:36;7.80;1.00
4826;DHT22;2427;50.934;6.776;2023-11-21T06:27:04;7.70;1.00
4826;DHT22;2427;50.934;6.776;2023-11-21T06:29:30;7.70;1.00
4826;DHT22;2427;50.934;6.776;2023-11-21T06:31:56;7.80;1.00
4826;DHT22;2427;50.934;6.776;2023-11-21T06:34:21;7.80;1.00
4826;DHT22;2427;50.934;6.776;2023-11-21T06:36:47;7.90;1.00
4826;DHT22;2427;50.934;6.776;2023-11-21T06:39:13;7.90;1.00
4826;DHT22;2427;50.934;6.776;2023-11-21T06:41:40;7.90;1.00
4826;DHT22;2427;50.934;6.776;2023-11-21T06:44:06;8.00;1.00
4826;DHT22;2427;50.934;6.776;2023-11-21T06:46:31;8.00;1.00
4826;DHT22;2427;50.934;6.776;2023-11-21T06:48:57;7.90;1.00
4826;DHT22;2427;50.934;6.776;2023-11-21T06:51:22;7.90;1.00
4826;DHT22;2427;50.934;6.776;2023-11-21T06:53:48;7.90;1.00
4826;DHT22;2427;50.934;6.776;2023-11-21T06:56:17;8.00;1.00
4826;DHT22;2427;50.934;6.776;2023-11-21T06:58:44;8.00;1.00
4826;DHT22;2427;50.934;6.776;2023-11-21T07:01:11;8.10;1.00
4826;DHT22;2427;50.934;6.776;2023-11-21T07:03:36;8.10;1.00
4826;DHT22;2427;50.934;6.776;2023-11-21T07:06:03;8.10;1.00
4826;DHT22;2427;50.934;6.776;2023-11-21T07:08:29;8.00;1.00
4826;DHT22;2427;50.934;6.776;2023-11-21T07:10:54;8.10;1.00
4826;DHT22;2427;50.934;6.776;2023-11-21T07:13:20;8.10;1.00
4826;DHT22;2427;50.934;6.776;2023-11-21T07:15:47;8.10;1.00
4826;DHT22;2427;50.934;6.776;2023-11-21T07:18:13;8.10;1.00
4826;DHT22;2427;50.934;6.776;2023-11-21T07:20:39;8.10;1.00
4826;DHT22;2427;50.934;6.776;2023-11-21T07:23:04;8.20;1.00
4826;DHT22;2427;50.934;6.776;2023-11-21T07:25:31;8.10;1.00
4826;DHT22;2427;50.934;6.776;2023-11-21T07:27:57;8.20;1.00
4826;DHT22;2427;50.934;6.776;2023-11-21T07:30:22;8.20;1.00
4826;DHT22;2427;50.934;6.776;2023-11-21T07:32:48;8.20;1.00
4826;DHT22;2427;50.934;6.776;2023-11-21T07:35:14;8.20;1.00
4826;DHT22;2427;50.934;6.776;2023-11-21T07:37:40;8.30;1.00
4826;DHT22;2427;50.934;6.776;2023-11-21T07:40:06;8.20;1.00
4826;DHT22;2427;50.934;6.776;2023-11-21T07:42:34;8.30;1.00
4826;DHT22;2427;50.934;6.776;2023-11-21T07:44:59;8.30;1.00
4826;DHT22;2427;50.934;6.776;2023-11-21T07:47:25;8.30;1.00
4826;DHT22;2427;50.934;6.776;2023-11-21T07:49:53;8.40;1.00
4826;DHT22;2427;50.934;6.776;2023-11-21T07:52:21;8.40;1.00
4826;DHT22;2427;50.934;6.776;2023-11-21T07:54:47;8.40;1.00
4826;DHT22;2427;50.934;6.776;2023-11-21T07:57:12;8.40;1.00
4826;DHT22;2427;50.934;6.776;2023-11-21T07:59:42;8.40;1.00
4826;DHT22;2427;50.934;6.776;2023-11-21T08:02:07;8.40;1.00
4826;DHT22;2427;50.934;6.776;2023-11-21T08:04:33;8.50;1.00
4826;DHT22;2427;50.934;6.776;2023-11-21T08:07:01;8.50;1.00
4826;DHT22;2427;50.934;6.776;2023-11-21T08:09:26;8.60;1.00
4826;DHT22;2427;50.934;6.776;2023-11-21T08:11:52;8.60;1.00
4826;DHT22;2427;50.934;6.776;2023-11-21T08:14:18;8.60;1.00
4826;DHT22;2427;50.934;6.776;2023-11-21T08:16:44;8.60;1.00
4826;DHT22;2427;50.934;6.776;2023-11-21T08:19:10;8.70;1.00
4826;DHT22;2427;50.934;6.776;2023-11-21T08:21:36;8.70;1.00
4826;DHT22;2427;50.934;6.776;2023-11-21T08:24:05;8.80;1.00
4826;DHT22;2427;50.934;6.776;2023-11-21T08:26:31;8.80;1.00
4826;DHT22;2427;50.934;6.776;2023-11-21T08:28:56;8.80;1.00
4826;DHT22;2427;50.934;6.776;2023-11-21T08:31:26;8.80;1.00
4826;DHT22;2427;50.934;6.776;2023-11-21T08:33:51;8.80;1.00
4826;DHT22;2427;50.934;6.776;2023-11-21T08:36:20;8.90;1.00
4826;DHT22;2427;50.934;6.776;2023-11-21T08:38:46;8.80;1.00
4826;DHT22;2427;50.934;6.776;2023-11-21T08:41:11;8.80;1.00
4826;DHT22;2427;50.934;6.776;2023-11-21T08:43:37;8.80;1.00
4826;DHT22;2427;50.934;6.776;2023-11-21T08:46:06;8.80;1.00
4826;DHT22;2427;50.934;6.776;2023-11-21T08:48:31;8.80;1.00
4826;DHT22;2427;50.934;6.776;2023-11-21T08:50:57;8.90;1.00
4826;DHT22;2427;50.934;6.776;2023-11-21T08:53:22;8.90;1.00
4826;DHT22;2427;50.934;6.776;2023-11-21T08:55:48;8.90;1.00
4826;DHT22;2427;50.934;6.776;2023-11-21T08:58:15;8.90;1.00
4826;DHT22;2427;50.934;6.776;2023-11-21T09:00:41;8.90;1.00
4826;DHT22;2427;50.934;6.776;2023-11-21T09:03:06;9.00;1.00
4826;DHT22;2427;50.934;6.776;2023-11-21T09:05:37;9.00;1.00
4826;DHT22;2427;50.934;6.776;2023-11-21T09:08:03;9.10;1.00
4826;DHT22;2427;50.934;6.776;2023-11-21T09:10:29;9.20;1.00
4826;DHT22;2427;50.934;6.776;2023-11-21T09:12:54;9.30;1.00
4826;DHT22;2427;50.934;6.776;2023-11-21T09:15:20;9.40;1.00
4826;DHT22;2427;50.934;6.776;2023-11-21T09:17:45;9.40;1.00
4826;DHT22;2427;50.934;6.776;2023-11-21T09:20:11;9.50;1.00
4826;DHT22;2427;50.934;6.776;2023-11-21T09:22:37;9.60;1.00
4826;DHT22;2427;50.934;6.776;2023-11-21T09:25:02;9.60;1.00
4826;DHT22;2427;50.934;6.776;2023-11-21T09:27:32;9.70;1.00
4826;DHT22;2427;50.934;6.776;2023-11-21T09:29:58;9.70;1.00
4826;DHT22;2427;50.934;6.776;2023-11-21T09:32:23;9.60;1.00
4826;DHT22;2427;50.934;6.776;2023-11-21T09:34:50;9.60;1.00
4826;DHT22;2427;50.934;6.776;2023-11-21T09:37:16;9.60;1.00
4826;DHT22;2427;50.934;6.776;2023-11-21T09:39:42;9.60;1.00
4826;DHT22;2427;50.934;6.776;2023-11-21T09:42:15;9.60;1.00
4826;DHT22;2427;50.934;6.776;2023-11-21T09:45:02;9.60;1.00
4826;DHT22;2427;50.934;6.776;2023-11-21T09:47:30;9.60;1.00
4826;DHT22;2427;50.934;6.776;2023-11-21T09:49:56;9.50;1.00
4826;DHT22;2427;50.934;6.776;2023-11-21T09:52:28;9.50;1.00
4826;DHT22;2427;50.934;6.776;2023-11-21T09:54:54;9.50;1.00
4826;DHT22;2427;50.934;6.776;2023-11-21T09:57:23;9.50;1.00
4826;DHT22;2427;50.934;6.776;2023-11-21T09:59:51;9.60;1.00
4826;DHT22;2427;50.934;6.776;2023-11-21T10:02:23;9.50;1.00
4826;DHT22;2427;50.934;6.776;2023-11-21T10:04:51;9.60;1.00
4826;DHT22;2427;50.934;6.776;2023-11-21T10:07:17;9.60;1.00
4826;DHT22;2427;50.934;6.776;2023-11-21T10:09:46;9.60;1.00
4826;DHT22;2427;50.934;6.776;2023-11-21T10:12:14;9.60;1.00
4826;DHT22;2427;50.934;6.776;2023-11-21T10:14:41;9.70;1.00
4826;DHT22;2427;50.934;6.776;2023-11-21T10:17:08;9.70;1.00
4826;DHT22;2427;50.934;6.776;2023-11-21T10:19:35;9.80;1.00
4826;DHT22;2427;50.934;6.776;2023-11-21T10:22:02;9.80;1.00
4826;DHT22;2427;50.934;6.776;2023-11-21T10:24:28;9.80;1.00
4826;DHT22;2427;50.934;6.776;2023-11-21T10:26:54;9.80;99.90
4826;DHT22;2427;50.934;6.776;2023-11-21T10:29:20;9.80;99.90
4826;DHT22;2427;50.934;6.776;2023-11-21T10:31:51;9.80;99.90
4826;DHT22;2427;50.934;6.776;2023-11-21T10:34:20;9.80;99.90
4826;DHT22;2427;50.934;6.776;2023-11-21T10:36:47;9.80;99.90
4826;DHT22;2427;50.934;6.776;2023-11-21T10:39:20;9.80;99.90
4826;DHT22;2427;50.934;6.776;2023-11-21T10:41:49;9.80;99.90
4826;DHT22;2427;50.934;6.776;2023-11-21T10:44:15;9.90;99.90
4826;DHT22;2427;50.934;6.776;2023-11-21T10:46:55;9.90;99.90
4826;DHT22;2427;50.934;6.776;2023-11-21T10:49:25;10.00;99.90
4826;DHT22;2427;50.934;6.776;2023-11-21T10:51:53;10.10;99.90
4826;DHT22;2427;50.934;6.776;2023-11-21T10:54:26;10.10;99.90
4826;DHT22;2427;50.934;6.776;2023-11-21T10:56:59;10.20;99.90
4826;DHT22;2427;50.934;6.776;2023-11-21T10:59:28;10.20;99.90
4826;DHT22;2427;50.934;6.776;2023-11-21T11:01:54;10.30;99.90
4826;DHT22;2427;50.934;6.776;2023-11-21T11:04:22;10.30;99.90
4826;DHT22;2427;50.934;6.776;2023-11-21T11:06:55;10.40;99.90
4826;DHT22;2427;50.934;6.776;2023-11-21T11:09:22;10.40;99.90
4826;DHT22;2427;50.934;6.776;2023-11-21T11:11:48;10.50;99.90
4826;DHT22;2427;50.934;6.776;2023-11-21T11:14:14;10.50;99.90
4826;DHT22;2427;50.934;6.776;2023-11-21T11:16:41;10.50;81.20
4826;DHT22;2427;50.934;6.776;2023-11-21T11:19:08;10.50;94.20
4826;DHT22;2427;50.934;6.776;2023-11-21T11:24:29;10.50;99.90
4826;DHT22;2427;50.934;6.776;2023-11-21T11:32:58;10.50;99.90
4826;DHT22;2427;50.934;6.776;2023-11-21T11:38:07;10.50;99.90
4826;DHT22;2427;50.934;6.776;2023-11-21T11:40:46;10.60;99.90
4826;DHT22;2427;50.934;6.776;2023-11-21T11:43:12;10.70;99.90
4826;DHT22;2427;50.934;6.776;2023-11-21T11:45:38;10.90;99.90
4826;DHT22;2427;50.934;6.776;2023-11-21T11:48:07;10.80;22.70
4826;DHT22;2427;50.934;6.776;2023-11-21T11:50:33;10.80;1.00
4826;DHT22;2427;50.934;6.776;2023-11-21T11:53:13;10.80;1.00
4826;DHT22;2427;50.934;6.776;2023-11-21T11:55:39;10.60;1.00
4826;DHT22;2427;50.934;6.776;2023-11-21T11:58:06;10.60;1.00
4826;DHT22;2427;50.934;6.776;2023-11-21T12:02:59;10.50;1.00
4826;DHT22;2427;50.934;6.776;2023-11-21T12:05:28;10.40;1.00
4826;DHT22;2427;50.934;6.776;2023-11-21T12:07:56;10.40;12.30
4826;DHT22;2427;50.934;6.776;2023-11-21T12:10:26;10.40;27.30
4826;DHT22;2427;50.934;6.776;2023-11-21T12:12:57;10.50;65.10
4826;DHT22;2427;50.934;6.776;2023-11-21T12:15:24;10.50;76.00
4826;DHT22;2427;50.934;6.776;2023-11-21T12:17:51;10.60;49.90
4826;DHT22;2427;50.934;6.776;2023-11-21T12:20:21;10.70;21.10
4826;DHT22;2427;50.934;6.776;2023-11-21T12:22:49;10.60;1.00
4826;DHT22;2427;50.934;6.776;2023-11-21T12:25:18;10.60;34.60
4826;DHT22;2427;50.934;6.776;2023-11-21T12:27:53;10.50;89.50
4826;DHT22;2427;50.934;6.776;2023-11-21T12:30:22;10.50;99.90
4826;DHT22;2427;50.934;6.776;2023-11-21T12:32:49;10.50;99.90
4826;DHT22;2427;50.934;6.776;2023-11-21T12:35:17;10.50;99.90
4826;DHT22;2427;50.934;6.776;2023-11-21T12:37:45;10.50;99.90
4826;DHT22;2427;50.934;6.776;2023-11-21T12:40:12;10.50;99.90
4826;DHT22;2427;50.934;6.776;2023-11-21T12:42:44;10.50;99.90
4826;DHT22;2427;50.934;6.776;2023-11-21T12:45:25;10.60;99.90
4826;DHT22;2427;50.934;6.776;2023-11-21T12:47:55;10.60;99.90
4826;DHT22;2427;50.934;6.776;2023-11-21T12:50:23;10.70;99.90
4826;DHT22;2427;50.934;6.776;2023-11-21T12:52:50;10.70;99.90
4826;DHT22;2427;50.934;6.776;2023-11-21T12:55:17;10.70;99.90
4826;DHT22;2427;50.934;6.776;2023-11-21T12:57:48;10.80;99.90
4826;DHT22;2427;50.934;6.776;2023-11-21T13:00:17;10.80;52.90
4826;DHT22;2427;50.934;6.776;2023-11-21T13:02:56;10.90;61.10
4826;DHT22;2427;50.934;6.776;2023-11-21T13:05:47;11.00;31.60
4826;DHT22;2427;50.934;6.776;2023-11-21T13:08:16;11.20;1.00
4826;DHT22;2427;50.934;6.776;2023-11-21T13:10:46;11.40;1.00
4826;DHT22;2427;50.934;6.776;2023-11-21T13:13:14;11.40;1.00
4826;DHT22;2427;50.934;6.776;2023-11-21T13:15:57;11.50;1.00
4826;DHT22;2427;50.934;6.776;2023-11-21T13:18:27;11.40;99.90
4826;DHT22;2427;50.934;6.776;2023-11-21T13:20:57;11.30;99.90
4826;DHT22;2427;50.934;6.776;2023-11-21T13:23:24;11.20;99.90
4826;DHT22;2427;50.934;6.776;2023-11-21T13:25:51;11.10;99.90
4826;DHT22;2427;50.934;6.776;2023-11-21T13:28:17;10.90;1.00
4826;DHT22;2427;50.934;6.776;2023-11-21T13:30:47;10.80;1.00
4826;DHT22;2427;50.934;6.776;2023-11-21T13:33:14;10.70;1.00
4826;DHT22;2427;50.934;6.776;2023-11-21T13:35:43;10.70;1.00
4826;DHT22;2427;50.934;6.776;2023-11-21T13:38:17;10.60;1.00
4826;DHT22;2427;50.934;6.776;2023-11-21T13:40:48;10.60;1.00
4826;DHT22;2427;50.934;6.776;2023-11-21T13:43:19;10.60;1.00
4826;DHT22;2427;50.934;6.776;2023-11-21T13:45:47;10.50;1.00
4826;DHT22;2427;50.934;6.776;2023-11-21T13:48:15;10.50;1.00
4826;DHT22;2427;50.934;6.776;2023-11-21T13:50:45;10.50;1.00
4826;DHT22;2427;50.934;6.776;2023-11-21T13:53:21;10.50;1.00
4826;DHT22;2427;50.934;6.776;2023-11-21T13:55:51;10.50;1.00
4826;DHT22;2427;50.934;6.776;2023-11-21T13:58:20;10.40;1.00
4826;DHT22;2427;50.934;6.776;2023-11-21T14:00:50;10.40;1.00
4826;DHT22;2427;50.934;6.776;2023-11-21T14:03:25;10.40;1.00
4826;DHT22;2427;50.934;6.776;2023-11-21T14:06:03;10.40;1.00
4826;DHT22;2427;50.934;6.776;2023-11-21T14:08:34;10.40;1.00
4826;DHT22;2427;50.934;6.776;2023-11-21T14:11:00;10.40;1.00
4826;DHT22;2427;50.934;6.776;2023-11-21T14:13:26;10.30;1.00
4826;DHT22;2427;50.934;6.776;2023-11-21T14:15:52;10.40;1.00
4826;DHT22;2427;50.934;6.776;2023-11-21T14:18:24;10.40;1.00
4826;DHT22;2427;50.934;6.776;2023-11-21T14:20:56;10.30;31.00
4826;DHT22;2427;50.934;6.776;2023-11-21T14:23:21;10.30;36.30
4826;DHT22;2427;50.934;6.776;2023-11-21T14:25:49;10.40;33.30
4826;DHT22;2427;50.934;6.776;2023-11-21T14:28:16;10.30;21.40
4826;DHT22;2427;50.934;6.776;2023-11-21T14:30:42;10.30;9.80
4826;DHT22;2427;50.934;6.776;2023-11-21T14:33:08;10.30;26.90
4826;DHT22;2427;50.934;6.776;2023-11-21T14:35:35;10.30;41.60
4826;DHT22;2427;50.934;6.776;2023-11-21T14:38:01;10.30;59.80
4826;DHT22;2427;50.934;6.776;2023-11-21T14:40:33;10.30;47.90
4826;DHT22;2427;50.934;6.776;2023-11-21T14:43:03;10.20;76.20
4826;DHT22;2427;50.934;6.776;2023-11-21T14:45:34;10.20;93.20
4826;DHT22;2427;50.934;6.776;2023-11-21T14:48:01;10.20;99.90
4826;DHT22;2427;50.934;6.776;2023-11-21T14:50:41;10.10;99.90
4826;DHT22;2427;50.934;6.776;2023-11-21T14:53:08;10.10;99.90
4826;DHT22;2427;50.934;6.776;2023-11-21T14:55:35;10.10;99.90
4826;DHT22;2427;50.934;6.776;2023-11-21T14:58:19;10.00;99.90
4826;DHT22;2427;50.934;6.776;2023-11-21T15:00:57;10.00;99.90
4826;DHT22;2427;50.934;6.776;2023-11-21T15:03:27;10.00;99.90
4826;DHT22;2427;50.934;6.776;2023-11-21T15:05:56;10.00;99.90
4826;DHT22;2427;50.934;6.776;2023-11-21T15:08:22;10.00;99.90
4826;DHT22;2427;50.934;6.776;2023-11-21T15:10:55;10.00;99.90
4826;DHT22;2427;50.934;6.776;2023-11-21T15:13:21;9.90;99.90
4826;DHT22;2427;50.934;6.776;2023-11-21T15:15:48;9.90;99.90
4826;DHT22;2427;50.934;6.776;2023-11-21T15:18:14;9.90;99.90
4826;DHT22;2427;50.934;6.776;2023-11-21T15:20:40;9.90;99.90
4826;DHT22;2427;50.934;6.776;2023-11-21T15:23:06;9.90;99.90
4826;DHT22;2427;50.934;6.776;2023-11-21T15:25:32;9.90;99.90
4826;DHT22;2427;50.934;6.776;2023-11-21T15:27:59;9.90;99.90
4826;DHT22;2427;50.934;6.776;2023-11-21T15:30:25;9.90;99.90
4826;DHT22;2427;50.934;6.776;2023-11-21T15:32:51;9.80;99.90
4826;DHT22;2427;50.934;6.776;2023-11-21T15:35:19;9.90;99.90
4826;DHT22;2427;50.934;6.776;2023-11-21T15:37:45;9.90;99.90
4826;DHT22;2427;50.934;6.776;2023-11-21T15:40:11;9.80;99.90
4826;DHT22;2427;50.934;6.776;2023-11-21T15:42:39;9.80;1.00
4826;DHT22;2427;50.934;6.776;2023-11-21T15:45:05;9.80;1.00
4826;DHT22;2427;50.934;6.776;2023-11-21T15:47:33;9.70;1.00
4826;DHT22;2427;50.934;6.776;2023-11-21T15:49:59;9.70;1.00
4826;DHT22;2427;50.934;6.776;2023-11-21T15:52:25;9.70;1.00
4826;DHT22;2427;50.934;6.776;2023-11-21T15:54:50;9.60;1.00
4826;DHT22;2427;50.934;6.776;2023-11-21T15:57:16;9.60;1.00
4826;DHT22;2427;50.934;6.776;2023-11-21T15:59:43;9.60;1.00
4826;DHT22;2427;50.934;6.776;2023-11-21T16:02:10;9.60;1.00
4826;DHT22;2427;50.934;6.776;2023-11-21T16:04:36;9.50;1.00
4826;DHT22;2427;50.934;6.776;2023-11-21T16:07:04;9.50;1.00
4826;DHT22;2427;50.934;6.776;2023-11-21T16:09:31;9.50;1.00
4826;DHT22;2427;50.934;6.776;2023-11-21T16:12:01;9.40;1.00
4826;DHT22;2427;50.934;6.776;2023-11-21T16:14:32;9.40;1.00
4826;DHT22;2427;50.934;6.776;2023-11-21T16:17:02;9.40;1.00
4826;DHT22;2427;50.934;6.776;2023-11-21T16:19:28;9.40;1.00
4826;DHT22;2427;50.934;6.776;2023-11-21T16:21:54;9.40;1.00
4826;DHT22;2427;50.934;6.776;2023-11-21T16:24:20;9.30;1.00
4826;DHT22;2427;50.934;6.776;2023-11-21T16:26:46;9.40;1.00
4826;DHT22;2427;50.934;6.776;2023-11-21T16:29:13;9.40;1.00
4826;DHT22;2427;50.934;6.776;2023-11-21T16:31:39;9.40;1.00
4826;DHT22;2427;50.934;6.776;2023-11-21T16:34:12;9.30;1.00
4826;DHT22;2427;50.934;6.776;2023-11-21T16:36:41;9.30;1.00
4826;DHT22;2427;50.934;6.776;2023-11-21T16:39:08;9.30;1.00
4826;DHT22;2427;50.934;6.776;2023-11-21T16:41:37;9.30;1.00
4826;DHT22;2427;50.934;6.776;2023-11-21T16:44:03;9.30;1.00
4826;DHT22;2427;50.934;6.776;2023-11-21T16:46:29;9.20;1.00
4826;DHT22;2427;50.934;6.776;2023-11-21T16:48:54;9.20;1.00